Time;durP1;ratioP1;P1;durP2;ratioP2;P2;SDS_P1;SDS_P2;PMS_P1;PMS_P2;Temp;Humidity;BMP_temperature;BMP_pressure;BME280_temperature;BME280_humidity;BME280_pressure;Samples;Min_cycle;Max_cycle;Signal;HPM_P1;HPM_P2
2022/11/02 00:01:43;;;;;;;;;;;;;;;14.01;67.62;95960.75;5089845;28;20009;-72
2022/11/02 00:04:09;;;;;;;;;;;;;;;13.98;67.75;95967.53;5084689;28;20056;-72
2022/11/02 00:06:34;;;;;;;;;;;;;;;14.05;67.21;95957.16;5069919;28;20083;-72
2022/11/02 00:08:59;;;;;;;;;;;;;;;14.25;66.70;95961.22;5074423;28;20012;-72
2022/11/02 00:11:25;;;;;;;;;;;;;;;14.38;65.73;95954.19;5090506;28;20005;-72
2022/11/02 00:13:50;;;;;;;;;;;;;;;14.42;65.28;95963.19;5088851;28;20577;-72
2022/11/02 00:16:17;;;;;;;;;;;;;;;14.42;65.27;95965.06;5088853;28;20038;-72
2022/11/02 00:18:44;;;;;;;;;;;;;;;14.38;65.19;95964.09;5092638;22;20393;-65
2022/11/02 00:21:10;;;;;;;;;;;;;;;14.36;65.21;95960.97;5106109;28;20013;-65
2022/11/02 00:23:35;;;;;;;;;;;;;;;14.34;65.57;95966.63;5071353;28;20016;-65
2022/11/02 00:26:01;;;;;;;;;;;;;;;14.33;64.81;95965.06;5086156;28;20107;-65
2022/11/02 00:28:27;;;;;;;;;;;;;;;14.31;65.00;95969.91;5089913;28;20134;-66
2022/11/02 00:30:52;;;;;;;;;;;;;;;14.27;65.25;95974.28;5087233;28;20099;-64
2022/11/02 00:33:17;;;;;;;;;;;;;;;14.21;64.82;95964.81;5090602;28;20027;-65
2022/11/02 00:35:44;;;;;;;;;;;;;;;14.14;65.16;95962.56;5085805;28;20016;-65
2022/11/02 00:38:27;;;;;;;;;;;;;;;14.12;65.56;95966.63;5089561;28;20022;-65
2022/11/02 00:40:53;;;;;;;;;;;;;;;14.10;65.21;95976.88;5089082;28;20044;-65
2022/11/02 00:43:18;;;;;;;;;;;;;;;14.05;65.48;95978.56;5090177;28;20009;-65
2022/11/02 00:45:43;;;;;;;;;;;;;;;14.02;65.23;95978.38;5084524;28;20012;-65
2022/11/02 00:48:08;;;;;;;;;;;;;;;13.98;65.16;95986.25;5086484;28;20009;-65
2022/11/02 00:50:34;;;;;;;;;;;;;;;13.93;65.81;95991.72;5088940;28;20400;-65
2022/11/02 00:52:59;;;;;;;;;;;;;;;13.87;65.66;95986.78;5090140;28;20009;-65
2022/11/02 00:55:24;;;;;;;;;;;;;;;13.85;65.78;95979.06;5090652;28;20011;-65
2022/11/02 00:57:49;;;;;;;;;;;;;;;13.83;65.52;95983.94;5094123;28;20009;-66
2022/11/02 01:00:15;;;;;;;;;;;;;;;13.71;65.73;95981.00;5092112;28;20008;-65
2022/11/02 01:02:41;;;;;;;;;;;;;;;13.75;65.68;95992.66;5094164;28;20104;-65
2022/11/02 01:05:07;;;;;;;;;;;;;;;13.70;65.83;95996.25;5091762;28;20074;-65
2022/11/02 01:07:32;;;;;;;;;;;;;;;13.67;66.16;95991.53;5093583;28;20028;-65
2022/11/02 01:09:57;;;;;;;;;;;;;;;13.61;65.96;95984.69;5092756;28;20012;-65
2022/11/02 01:12:23;;;;;;;;;;;;;;;13.60;66.13;95993.81;5093587;28;20013;-66
2022/11/02 01:14:49;;;;;;;;;;;;;;;13.57;66.28;95999.78;5091947;28;20050;-66
2022/11/02 01:17:14;;;;;;;;;;;;;;;13.40;66.81;96004.94;5092319;28;20564;-65
2022/11/02 01:19:40;;;;;;;;;;;;;;;13.48;66.98;95999.69;5092965;28;20012;-65
2022/11/02 01:22:05;;;;;;;;;;;;;;;13.40;67.01;96005.72;5093719;28;20461;-65
2022/11/02 01:24:30;;;;;;;;;;;;;;;13.32;67.74;96001.09;5091880;28;20009;-65
2022/11/02 01:26:55;;;;;;;;;;;;;;;13.39;67.59;96003.38;5091687;28;20023;-65
2022/11/02 01:29:21;;;;;;;;;;;;;;;13.43;67.04;96001.69;5093445;28;20015;-66
2022/11/02 01:31:47;;;;;;;;;;;;;;;13.43;66.82;95997.13;5091810;28;20020;-65
2022/11/02 01:34:12;;;;;;;;;;;;;;;13.38;66.54;96012.47;5091657;28;20009;-66
2022/11/02 01:36:38;;;;;;;;;;;;;;;13.32;66.99;96003.00;5091874;28;20012;-66
2022/11/02 01:39:03;;;;;;;;;;;;;;;13.39;66.83;95998.81;5092413;28;20005;-66
2022/11/02 01:41:28;;;;;;;;;;;;;;;13.43;66.90;95999.00;5093384;28;20063;-66
2022/11/02 01:43:55;;;;;;;;;;;;;;;13.42;66.69;96003.56;5091445;28;20013;-66
2022/11/02 01:46:38;;;;;;;;;;;;;;;13.44;66.92;96000.59;5091792;28;20070;-66
2022/11/02 01:49:06;;;;;;;;;;;;;;;13.52;66.84;96008.69;5092376;28;20052;-65
2022/11/02 01:51:40;;;;;;;;;;;;;;;13.78;66.45;96005.44;5093265;28;20461;-66
2022/11/02 01:54:09;;;;;;;;;;;;;;;14.04;66.39;96006.41;5091141;28;20009;-66
2022/11/02 01:56:34;;;;;;;;;;;;;;;14.27;65.75;96001.81;5092543;28;20095;-65
2022/11/02 01:59:01;;;;;;;;;;;;;;;14.38;65.08;95999.69;5091985;28;20095;-66
2022/11/02 02:01:27;;;;;;;;;;;;;;;14.44;64.89;95995.81;5092086;28;20497;-66
2022/11/02 02:03:53;;;;;;;;;;;;;;;14.46;64.31;95993.59;5089415;28;20012;-66
2022/11/02 02:06:18;;;;;;;;;;;;;;;14.41;63.81;95996.41;5091227;28;20031;-66
2022/11/02 02:08:45;;;;;;;;;;;;;;;14.28;64.04;95998.09;5092537;28;20070;-66
2022/11/02 02:11:24;;;;;;;;;;;;;;;14.13;63.88;95990.44;5091962;28;20119;-66
2022/11/02 02:13:50;;;;;;;;;;;;;;;14.00;64.09;96001.97;5091957;28;20421;-66
2022/11/02 02:16:19;;;;;;;;;;;;;;;13.94;64.56;96008.56;5089214;28;20063;-66
2022/11/02 02:18:47;;;;;;;;;;;;;;;13.92;64.71;96003.50;5091616;28;20485;-66
2022/11/02 02:21:37;;;;;;;;;;;;;;;13.39;65.11;95913.28;5091664;28;20066;-66
2022/11/02 02:24:08;;;;;;;;;;;;;;;14.08;64.67;96013.84;5091032;28;20602;-66
2022/11/02 02:26:46;;;;;;;;;;;;;;;14.03;64.17;96012.09;5090489;28;20020;-65
2022/11/02 02:29:22;;;;;;;;;;;;;;;14.12;64.64;96020.94;5091787;28;20012;-67
2022/11/02 02:31:54;;;;;;;;;;;;;;;14.13;64.58;96016.41;5084918;28;20111;-66
2022/11/02 02:34:26;;;;;;;;;;;;;;;14.11;64.35;96016.69;5090584;28;20026;-66
2022/11/02 02:36:54;;;;;;;;;;;;;;;14.07;64.09;96028.28;5070354;28;20435;-66
2022/11/02 02:39:37;;;;;;;;;;;;;;;14.11;64.64;96018.56;5072227;28;20074;-65
2022/11/02 02:42:10;;;;;;;;;;;;;;;14.22;64.86;96020.69;5090944;28;20013;-66
2022/11/02 02:44:37;;;;;;;;;;;;;;;14.34;64.62;96017.47;5072554;28;20006;-66
2022/11/02 02:47:07;;;;;;;;;;;;;;;14.49;64.25;96016.34;5090448;28;20024;-66
2022/11/02 02:49:46;;;;;;;;;;;;;;;14.71;64.22;96010.91;5090490;28;20017;-66
2022/11/02 02:52:11;;;;;;;;;;;;;;;14.94;64.13;96016.97;5091291;28;20004;-66
2022/11/02 02:54:38;;;;;;;;;;;;;;;15.16;63.66;96016.13;5090783;28;20606;-65
2022/11/02 02:57:08;;;;;;;;;;;;;;;15.30;62.99;96013.31;5091281;28;20016;-66
2022/11/02 02:59:38;;;;;;;;;;;;;;;15.43;62.38;96012.38;5091081;28;20024;-66
2022/11/02 03:02:11;;;;;;;;;;;;;;;15.43;62.21;96015.06;5090185;28;20017;-66
2022/11/02 03:04:36;;;;;;;;;;;;;;;15.43;62.19;96019.66;5089462;28;20013;-66
2022/11/02 03:07:02;;;;;;;;;;;;;;;15.51;62.08;96019.66;5090249;28;20405;-66
2022/11/02 03:09:42;;;;;;;;;;;;;;;15.31;62.86;96022.94;5089280;28;20068;-67
2022/11/02 03:12:21;;;;;;;;;;;;;;;14.78;64.47;96035.34;5089044;28;20012;-67
2022/11/02 03:14:47;;;;;;;;;;;;;;;14.73;65.12;96024.00;5090766;28;20021;-67
2022/11/02 03:17:12;;;;;;;;;;;;;;;15.04;64.50;96030.09;5090373;28;20013;-67
2022/11/02 03:19:56;;;;;;;;;;;;;;;14.99;64.02;96032.13;5090506;28;20471;-67
2022/11/02 03:22:32;;;;;;;;;;;;;;;15.33;63.55;96036.81;5090185;28;20568;-67
2022/11/02 03:25:04;;;;;;;;;;;;;;;15.22;64.06;96025.59;5090125;28;20063;-66
2022/11/02 03:27:52;;;;;;;;;;;;;;;15.56;63.06;96032.94;5090288;28;20017;-64
2022/11/02 03:30:18;;;;;;;;;;;;;;;15.24;63.69;96036.00;5089847;28;20478;-64
2022/11/02 03:33:04;;;;;;;;;;;;;;;15.07;64.54;96045.56;5088854;28;20071;-67
2022/11/02 03:35:40;;;;;;;;;;;;;;;14.64;65.37;96056.09;5091077;28;20069;-65
2022/11/02 03:38:14;;;;;;;;;;;;;;;14.98;64.34;96050.09;5089854;28;20125;-66
2022/11/02 03:40:46;;;;;;;;;;;;;;;15.07;64.08;96050.13;5088491;28;20192;-66
2022/11/02 03:43:12;;;;;;;;;;;;;;;15.27;63.45;96054.16;5090599;28;20574;-66
2022/11/02 03:45:39;;;;;;;;;;;;;;;15.34;63.07;96057.16;5089789;28;20395;-65
2022/11/02 03:48:06;;;;;;;;;;;;;;;15.33;62.77;96053.69;5090975;28;20350;-66
2022/11/02 03:50:32;;;;;;;;;;;;;;;15.31;63.03;96049.75;5090179;28;20009;-66
2022/11/02 03:53:05;;;;;;;;;;;;;;;15.23;62.62;96047.81;5089632;28;20060;-66
2022/11/02 03:55:34;;;;;;;;;;;;;;;15.16;63.13;96058.22;5090098;28;20020;-67
2022/11/02 03:57:59;;;;;;;;;;;;;;;14.93;63.85;96052.91;5089509;28;20009;-66
2022/11/02 04:00:26;;;;;;;;;;;;;;;14.94;63.82;96057.16;5088492;28;20403;-68
2022/11/02 04:02:56;;;;;;;;;;;;;;;14.96;63.88;96060.34;5088942;28;20020;-66
2022/11/02 04:05:33;;;;;;;;;;;;;;;14.48;65.83;96065.59;5088849;28;20016;-66
2022/11/02 04:16:10;;;;;;;;;;;;;;;14.43;66.83;96063.00;5089185;28;20476;-66
2022/11/02 04:21:19;;;;;;;;;;;;;;;14.43;65.89;96066.47;5087910;28;20437;-66
2022/11/02 04:26:29;;;;;;;;;;;;;;;14.54;65.32;96062.50;5088724;28;20066;-66
2022/11/02 04:28:54;;;;;;;;;;;;;;;14.59;65.42;96066.94;5088320;28;20012;-66
2022/11/02 04:31:19;;;;;;;;;;;;;;;14.63;65.49;96061.75;5087365;28;20095;-66
2022/11/02 04:33:44;;;;;;;;;;;;;;;14.64;65.08;96047.25;5088692;28;20470;-66
2022/11/02 04:36:09;;;;;;;;;;;;;;;14.62;65.10;96062.84;5088994;28;20016;-66
2022/11/02 04:38:41;;;;;;;;;;;;;;;14.61;65.04;96058.59;5088940;28;20013;-66
2022/11/02 04:44:00;;;;;;;;;;;;;;;14.52;65.05;96050.50;5089329;28;20016;-66
2022/11/02 04:46:27;;;;;;;;;;;;;;;14.49;64.81;96051.91;5088329;28;20013;-67
2022/11/02 04:48:52;;;;;;;;;;;;;;;14.47;64.84;96053.28;5089247;28;20764;-66
2022/11/02 04:51:19;;;;;;;;;;;;;;;14.44;65.10;96038.63;5070767;28;20013;-67
2022/11/02 04:53:44;;;;;;;;;;;;;;;14.45;65.07;96045.56;5072880;28;20013;-67
2022/11/02 04:56:10;;;;;;;;;;;;;;;14.51;64.89;96044.38;5089447;28;20004;-67
2022/11/02 04:58:35;;;;;;;;;;;;;;;14.49;64.92;96051.91;5088988;28;20112;-67
2022/11/02 05:01:05;;;;;;;;;;;;;;;14.46;65.29;96057.84;5086401;28;20048;-67
2022/11/02 05:03:30;;;;;;;;;;;;;;;14.48;65.53;96063.69;5088399;28;20044;-67
2022/11/02 05:05:55;;;;;;;;;;;;;;;14.46;65.20;96057.84;5089220;28;20067;-67
2022/11/02 05:08:20;;;;;;;;;;;;;;;14.48;65.42;96047.63;5087326;28;20017;-68
2022/11/02 05:10:46;;;;;;;;;;;;;;;14.47;65.34;96047.91;5087586;28;20024;-68
2022/11/02 05:13:11;;;;;;;;;;;;;;;14.52;65.38;96051.28;5089414;28;20087;-67
2022/11/02 05:15:39;;;;;;;;;;;;;;;14.57;65.43;96048.47;5087023;28;20461;-65
2022/11/02 05:18:05;;;;;;;;;;;;;;;14.65;65.02;96059.56;5089545;28;20066;-66
2022/11/02 05:20:30;;;;;;;;;;;;;;;14.72;64.86;96055.34;5088719;28;20013;-67
2022/11/02 05:22:55;;;;;;;;;;;;;;;14.80;64.69;96056.50;5088972;28;20013;-66
2022/11/02 05:25:20;;;;;;;;;;;;;;;14.86;64.88;96055.25;5088473;28;20016;-66
2022/11/02 05:27:45;;;;;;;;;;;;;;;14.87;64.58;96056.81;5088106;28;20021;-66
2022/11/02 05:30:11;;;;;;;;;;;;;;;14.86;64.50;96044.53;5086502;28;20028;-67
2022/11/02 05:32:36;;;;;;;;;;;;;;;14.86;64.14;96049.91;5088346;28;20066;-67
2022/11/02 05:35:01;;;;;;;;;;;;;;;14.83;64.13;96053.19;5088297;28;20115;-66
2022/11/02 05:37:27;;;;;;;;;;;;;;;14.80;64.43;96045.78;5086729;28;20016;-69
2022/11/02 05:39:52;;;;;;;;;;;;;;;14.75;64.50;96044.03;5087852;28;20013;-67
2022/11/02 05:42:17;;;;;;;;;;;;;;;14.71;64.56;96043.06;5093136;28;20461;-70
2022/11/02 05:44:42;;;;;;;;;;;;;;;14.66;64.32;96048.53;5092599;28;20009;-73
2022/11/02 05:47:07;;;;;;;;;;;;;;;14.65;64.51;96048.84;5091424;28;20473;-71
2022/11/02 05:49:33;;;;;;;;;;;;;;;14.67;64.41;96050.13;5081852;28;20017;-68
2022/11/02 05:51:58;;;;;;;;;;;;;;;14.69;64.35;96055.16;5072673;28;20001;-71
2022/11/02 05:54:24;;;;;;;;;;;;;;;14.66;64.64;96055.78;5071336;28;20055;-67
2022/11/02 05:56:49;;;;;;;;;;;;;;;14.71;64.30;96059.13;5070854;28;20032;-67
2022/11/02 05:59:14;;;;;;;;;;;;;;;14.74;64.62;96060.38;5070929;28;20014;-69
2022/11/02 06:01:39;;;;;;;;;;;;;;;14.74;64.97;96068.41;5071430;28;20088;-68
2022/11/02 06:04:04;;;;;;;;;;;;;;;14.81;64.55;96068.78;5072374;28;20005;-68
2022/11/02 06:06:31;;;;;;;;;;;;;;;14.88;64.61;96082.50;5081215;28;20044;-73
2022/11/02 06:08:56;;;;;;;;;;;;;;;14.99;64.30;96080.34;5090580;28;20225;-69
2022/11/02 06:11:21;;;;;;;;;;;;;;;15.04;64.04;96078.31;5090392;28;20491;-71
2022/11/02 06:13:48;;;;;;;;;;;;;;;15.09;63.94;96088.91;5092469;28;20005;-71
2022/11/02 06:16:14;;;;;;;;;;;;;;;15.14;63.74;96095.22;5092227;28;20472;-70
2022/11/02 06:18:40;;;;;;;;;;;;;;;15.14;63.40;96085.31;5090485;28;20017;-70
2022/11/02 06:21:05;;;;;;;;;;;;;;;15.11;63.28;96085.16;5091194;28;20481;-71
2022/11/02 06:23:31;;;;;;;;;;;;;;;15.06;63.05;96086.06;5091301;28;20058;-69
2022/11/02 06:25:57;;;;;;;;;;;;;;;14.99;63.24;96097.22;5090487;28;20067;-68
2022/11/02 06:28:22;;;;;;;;;;;;;;;14.95;63.19;96101.63;5089991;28;20017;-69
2022/11/02 06:30:48;;;;;;;;;;;;;;;14.92;63.60;96098.78;5090966;28;20008;-68
2022/11/02 06:33:14;;;;;;;;;;;;;;;14.93;63.42;96101.13;5091003;28;20020;-69
2022/11/02 06:35:39;;;;;;;;;;;;;;;14.91;63.18;96108.69;5090618;28;20476;-69
2022/11/02 06:38:04;;;;;;;;;;;;;;;14.85;63.07;96114.50;5091841;28;20005;-69
2022/11/02 06:40:30;;;;;;;;;;;;;;;14.80;63.35;96113.53;5091540;28;20009;-69
2022/11/02 06:42:58;;;;;;;;;;;;;;;14.78;63.69;96117.59;5091852;28;20004;-70
2022/11/02 06:45:23;;;;;;;;;;;;;;;14.76;63.64;96117.91;5091890;28;20016;-70
2022/11/02 06:47:49;;;;;;;;;;;;;;;14.76;63.64;96125.94;5091746;28;20412;-69
2022/11/02 06:50:14;;;;;;;;;;;;;;;14.77;63.41;96124.06;5090696;28;20013;-69
2022/11/02 06:52:46;;;;;;;;;;;;;;;14.79;63.90;96124.53;5089242;28;20012;-69
2022/11/02 06:55:12;;;;;;;;;;;;;;;14.88;63.89;96128.06;5089813;28;20019;-70
2022/11/02 06:57:38;;;;;;;;;;;;;;;14.96;64.03;96124.63;5091540;28;20465;-69
2022/11/02 07:00:04;;;;;;;;;;;;;;;15.03;63.43;96130.34;5091733;28;20009;-69
2022/11/02 07:02:30;;;;;;;;;;;;;;;15.06;63.42;96126.25;5091384;28;20009;-69
2022/11/02 07:04:55;;;;;;;;;;;;;;;15.06;63.22;96126.25;5090166;28;20103;-69
2022/11/02 07:07:20;;;;;;;;;;;;;;;15.05;63.57;96132.72;5091435;28;20103;-68
2022/11/02 07:09:46;;;;;;;;;;;;;;;15.01;63.11;96129.88;5090849;28;20107;-69
2022/11/02 07:12:11;;;;;;;;;;;;;;;15.00;63.72;96125.63;5091579;28;20083;-70
2022/11/02 07:14:36;;;;;;;;;;;;;;;15.02;63.37;96127.97;5089134;28;20386;-69
2022/11/02 07:17:01;;;;;;;;;;;;;;;15.02;63.42;96138.69;5091097;28;20067;-69
2022/11/02 07:19:27;;;;;;;;;;;;;;;15.04;63.72;96141.84;5091310;28;20024;-71
2022/11/02 07:21:52;;;;;;;;;;;;;;;15.07;63.33;96141.25;5091407;28;20012;-70
2022/11/02 07:24:17;;;;;;;;;;;;;;;15.12;63.62;96137.63;5090193;28;20013;-70
2022/11/02 07:26:43;;;;;;;;;;;;;;;15.25;63.75;96132.19;5089188;28;20066;-70
2022/11/02 07:29:08;;;;;;;;;;;;;;;15.32;63.37;96135.22;5091143;28;20040;-70
2022/11/02 07:31:34;;;;;;;;;;;;;;;15.34;63.07;96138.34;5089933;28;20009;-71
2022/11/02 07:34:01;;;;;;;;;;;;;;;15.40;63.29;96140.91;5090321;28;20020;-70
2022/11/02 07:36:27;;;;;;;;;;;;;;;15.45;63.28;96138.06;5089195;28;20009;-70
2022/11/02 07:38:52;;;;;;;;;;;;;;;15.54;62.96;96142.38;5090568;28;20009;-70
2022/11/02 07:41:17;;;;;;;;;;;;;;;15.64;63.02;96137.88;5089386;28;20106;-70
2022/11/02 07:43:43;;;;;;;;;;;;;;;15.77;62.81;96135.06;5090322;28;20016;-70
2022/11/02 07:46:09;;;;;;;;;;;;;;;15.93;62.69;96130.03;5088778;28;20354;-69
2022/11/02 07:48:34;;;;;;;;;;;;;;;16.05;62.27;96137.47;5090594;28;20044;-70
2022/11/02 07:51:00;;;;;;;;;;;;;;;16.14;62.24;96145.53;5090705;28;20016;-69
2022/11/02 07:53:25;;;;;;;;;;;;;;;16.18;61.74;96141.13;5089579;28;20522;-69
2022/11/02 07:55:50;;;;;;;;;;;;;;;16.37;61.71;96142.38;5088782;28;20078;-70
2022/11/02 07:58:16;;;;;;;;;;;;;;;16.69;61.21;96136.84;5090318;28;20005;-71
2022/11/02 08:00:41;;;;;;;;;;;;;;;16.92;60.45;96140.16;5089044;28;20009;-71
2022/11/02 08:03:07;;;;;;;;;;;;;;;17.13;59.87;96149.88;5089670;28;20060;-70
2022/11/02 08:05:33;;;;;;;;;;;;;;;17.37;59.38;96143.97;5088985;28;20016;-71
2022/11/02 08:07:59;;;;;;;;;;;;;;;17.75;58.90;96142.38;5089736;28;20035;-72
2022/11/02 08:10:25;;;;;;;;;;;;;;;17.94;57.73;96142.75;5090015;28;20354;-70
2022/11/02 08:12:51;;;;;;;;;;;;;;;18.05;57.09;96143.94;5090029;28;20016;-70
2022/11/02 08:15:16;;;;;;;;;;;;;;;18.12;56.41;96144.22;5089089;28;20056;-70
2022/11/02 08:17:41;;;;;;;;;;;;;;;17.85;55.60;96142.00;5089497;28;20020;-70
2022/11/02 08:20:07;;;;;;;;;;;;;;;17.91;55.62;96143.38;5090418;28;20403;-70
2022/11/02 08:22:36;;;;;;;;;;;;;;;17.95;55.47;96151.63;5090106;28;20357;-69
2022/11/02 08:25:01;;;;;;;;;;;;;;;17.71;55.85;96153.00;5087694;28;20017;-69
2022/11/02 08:27:26;;;;;;;;;;;;;;;17.59;56.57;96158.25;5089415;28;20140;-69
2022/11/02 08:29:51;;;;;;;;;;;;;;;17.99;54.44;96157.94;5090274;28;20103;-69
2022/11/02 08:32:17;;;;;;;;;;;;;;;18.33;54.32;96155.00;5090089;28;20056;-69
2022/11/02 08:34:42;;;;;;;;;;;;;;;18.65;53.00;96164.25;5088468;28;20019;-71
2022/11/02 08:37:07;;;;;;;;;;;;;;;18.14;53.07;96160.84;5088803;28;20023;-70
2022/11/02 08:39:33;;;;;;;;;;;;;;;18.93;51.98;96161.78;5088813;28;20022;-71
2022/11/02 08:41:58;;;;;;;;;;;;;;;19.51;51.40;96164.50;5089962;28;20011;-72
2022/11/02 08:44:23;;;;;;;;;;;;;;;19.10;49.38;96154.66;5089081;28;20013;-70
2022/11/02 08:46:49;;;;;;;;;;;;;;;19.66;48.52;96146.91;5089227;28;20052;-71
2022/11/02 08:49:17;;;;;;;;;;;;;;;20.14;48.39;96150.69;5089904;28;20005;-70
2022/11/02 08:51:42;;;;;;;;;;;;;;;19.35;48.29;96156.28;5090119;28;20012;-70
2022/11/02 08:54:07;;;;;;;;;;;;;;;18.72;49.52;96160.25;5089058;28;20008;-70
2022/11/02 08:56:33;;;;;;;;;;;;;;;18.36;50.63;96150.84;5089416;28;20009;-69
2022/11/02 08:58:58;;;;;;;;;;;;;;;16.84;53.41;96160.56;5089610;28;20062;-69
2022/11/02 09:01:23;;;;;;;;;;;;;;;16.46;53.87;96163.06;5089655;28;20013;-69
2022/11/02 09:03:49;;;;;;;;;;;;;;;16.93;52.77;96160.53;5088821;28;20013;-70
2022/11/02 09:06:14;;;;;;;;;;;;;;;16.54;53.07;96176.50;5089336;28;20013;-69
2022/11/02 09:08:39;;;;;;;;;;;;;;;16.70;52.74;96167.97;5089287;28;20048;-70
2022/11/02 09:11:05;;;;;;;;;;;;;;;16.84;52.55;96164.03;5089430;28;20008;-70
2022/11/02 09:13:30;;;;;;;;;;;;;;;16.31;52.61;96175.06;5088431;28;20024;-72
2022/11/02 09:15:57;;;;;;;;;;;;;;;16.34;52.23;96177.94;5092106;28;20005;-70
2022/11/02 09:18:22;;;;;;;;;;;;;;;16.62;51.57;96169.53;5093638;28;20017;-70
2022/11/02 09:20:48;;;;;;;;;;;;;;;16.85;49.37;96176.34;5093375;28;20362;-71
2022/11/02 09:23:17;;;;;;;;;;;;;;;17.55;48.64;96171.56;5091761;28;20463;-70
2022/11/02 09:25:43;;;;;;;;;;;;;;;16.71;51.12;96185.66;5092914;28;20074;-71
2022/11/02 09:28:08;;;;;;;;;;;;;;;16.94;49.92;96183.59;5093524;28;20005;-71
2022/11/02 09:30:33;;;;;;;;;;;;;;;16.81;51.09;96175.41;5090688;28;20072;-70
2022/11/02 09:33:00;;;;;;;;;;;;;;;16.95;50.43;96185.22;5091017;28;20013;-71
2022/11/02 09:35:29;;;;;;;;;;;;;;;17.56;48.55;96178.53;5093384;28;20005;-71
2022/11/02 09:37:54;;;;;;;;;;;;;;;17.63;48.13;96178.81;5093322;28;20005;-70
2022/11/02 09:40:21;;;;;;;;;;;;;;;17.95;47.26;96183.91;5092527;28;20012;-71
2022/11/02 09:43:00;;;;;;;;;;;;;;;17.04;49.81;96185.97;5072909;28;20012;-70
2022/11/02 09:45:25;;;;;;;;;;;;;;;18.17;48.08;96181.72;5072384;28;20477;-70
2022/11/02 09:47:53;;;;;;;;;;;;;;;18.12;46.81;96176.53;5072193;28;20013;-70
2022/11/02 09:50:21;;;;;;;;;;;;;;;17.58;48.74;96186.28;5072642;28;20457;-70
2022/11/02 09:52:51;;;;;;;;;;;;;;;18.72;46.56;96184.50;5088206;28;20473;-69
2022/11/02 09:55:19;;;;;;;;;;;;;;;18.60;46.17;96188.69;5072412;28;20066;-69
2022/11/02 09:57:47;;;;;;;;;;;;;;;17.61;47.52;96191.81;5072599;28;20047;-69
2022/11/02 10:00:17;;;;;;;;;;;;;;;17.74;47.92;96194.63;5073094;28;20006;-70
2022/11/02 10:02:57;;;;;;;;;;;;;;;16.63;49.98;96203.34;5091803;28;20013;-69
2022/11/02 10:05:45;;;;;;;;;;;;;;;15.97;52.11;96210.69;5092404;28;20003;-70
2022/11/02 10:08:17;;;;;;;;;;;;;;;16.53;51.28;96211.72;5093122;28;20016;-70
2022/11/02 10:11:03;;;;;;;;;;;;;;;16.79;50.60;96206.41;5090686;28;20020;-71
2022/11/02 10:13:41;;;;;;;;;;;;;;;16.72;50.00;96203.38;5091126;28;20016;-70
2022/11/02 10:16:15;;;;;;;;;;;;;;;16.82;49.84;96200.38;5090862;28;20009;-70
2022/11/02 10:18:41;;;;;;;;;;;;;;;17.23;48.53;96201.72;5092558;28;20777;-71
2022/11/02 10:21:12;;;;;;;;;;;;;;;17.36;47.97;96212.31;5090650;28;20052;-70
2022/11/02 10:23:46;;;;;;;;;;;;;;;16.44;49.74;96206.38;5092312;28;20005;-70
2022/11/02 10:26:20;;;;;;;;;;;;;;;16.00;50.60;96208.19;5091126;28;20009;-70
2022/11/02 10:28:49;;;;;;;;;;;;;;;16.01;50.92;96217.81;5092117;28;20040;-70
2022/11/02 10:31:44;;;;;;;;;;;;;;;16.24;50.44;96209.66;5090924;28;20012;-69
2022/11/02 10:34:10;;;;;;;;;;;;;;;16.31;50.28;96212.66;5087060;28;20009;-69
2022/11/02 10:36:58;;;;;;;;;;;;;;;16.53;48.98;96209.84;5091723;28;20911;-70
2022/11/02 10:39:23;;;;;;;;;;;;;;;16.74;47.75;96209.25;5092256;28;20013;-69
2022/11/02 10:41:51;;;;;;;;;;;;;;;16.73;47.32;96211.13;5090543;28;20100;-69
2022/11/02 10:44:39;;;;;;;;;;;;;;;16.44;47.02;96214.41;5092139;28;20012;-70
2022/11/02 10:47:13;;;;;;;;;;;;;;;16.64;46.18;96213.00;5091608;28;20505;-69
2022/11/02 10:49:48;;;;;;;;;;;;;;;17.12;45.31;96202.06;5092013;28;20373;-69
2022/11/02 10:52:15;;;;;;;;;;;;;;;17.71;45.24;96201.44;5091099;28;20480;-69
2022/11/02 10:54:40;;;;;;;;;;;;;;;16.83;46.45;96204.63;5091537;28;20009;-69
2022/11/02 10:57:13;;;;;;;;;;;;;;;16.40;47.70;96208.09;5091373;28;20137;-70
2022/11/02 11:00:06;;;;;;;;;;;;;;;17.07;46.64;96199.56;5091609;28;20005;-71
2022/11/02 11:02:31;;;;;;;;;;;;;;;18.48;44.19;96194.03;5074596;28;20016;-70
2022/11/02 11:05:13;;;;;;;;;;;;;;;18.37;43.35;96196.31;5070989;28;20005;-71
2022/11/02 11:07:42;;;;;;;;;;;;;;;18.76;42.87;96193.53;5069900;28;20610;-69
2022/11/02 11:10:13;;;;;;;;;;;;;;;19.83;41.00;96194.47;5071177;28;20012;-69
2022/11/02 11:12:39;;;;;;;;;;;;;;;18.05;44.49;96200.47;5086488;28;20149;-69
2022/11/02 11:15:06;;;;;;;;;;;;;;;17.06;47.37;96192.59;5090803;28;20135;-70
2022/11/02 11:17:33;;;;;;;;;;;;;;;16.30;48.54;96203.81;5089659;28;20009;-69
2022/11/02 11:19:58;;;;;;;;;;;;;;;17.53;46.33;96197.22;5090366;28;20013;-70
2022/11/02 11:22:39;;;;;;;;;;;;;;;16.75;47.34;96189.34;5089757;28;20534;-69
2022/11/02 11:25:26;;;;;;;;;;;;;;;17.00;46.49;96199.25;5090793;28;20009;-69
2022/11/02 11:27:55;;;;;;;;;;;;;;;16.45;47.98;96189.16;5089550;28;20023;-68
2022/11/02 11:30:28;;;;;;;;;;;;;;;16.48;48.07;96204.63;5089461;28;20017;-70
2022/11/02 11:32:54;;;;;;;;;;;;;;;16.63;48.00;96201.47;5090950;28;20080;-69
2022/11/02 11:35:19;;;;;;;;;;;;;;;16.13;48.69;96200.34;5090387;28;20434;-70
2022/11/02 11:37:56;;;;;;;;;;;;;;;16.29;47.69;96134.34;5089958;28;20099;-69
2022/11/02 11:40:21;;;;;;;;;;;;;;;17.13;46.75;96195.59;5090742;28;20066;-70
2022/11/02 11:42:51;;;;;;;;;;;;;;;16.29;48.78;96196.88;5089484;28;20060;-70
2022/11/02 11:45:19;;;;;;;;;;;;;;;16.64;48.37;96192.31;5090396;28;20020;-70
2022/11/02 11:47:49;;;;;;;;;;;;;;;16.89;48.77;96198.81;5088568;28;20123;-69
2022/11/02 11:50:15;;;;;;;;;;;;;;;16.29;49.82;96212.19;5090827;28;20016;-70
2022/11/02 11:52:41;;;;;;;;;;;;;;;16.49;50.08;96186.63;5089206;28;20020;-70
2022/11/02 11:55:24;;;;;;;;;;;;;;;16.86;49.36;96193.28;5090338;28;20420;-69
2022/11/02 11:58:07;;;;;;;;;;;;;;;17.02;49.14;96204.31;5089627;28;20013;-68
2022/11/02 12:00:33;;;;;;;;;;;;;;;16.95;49.22;96201.31;5090335;28;20634;-69
2022/11/02 12:03:04;;;;;;;;;;;;;;;16.99;47.94;96137.75;5090345;28;20016;-68
2022/11/02 12:05:31;;;;;;;;;;;;;;;17.80;47.02;96188.72;5090023;28;20107;-69
2022/11/02 12:08:11;;;;;;;;;;;;;;;18.18;45.99;96187.91;5089298;28;20013;-70
2022/11/02 12:10:51;;;;;;;;;;;;;;;17.47;47.23;96187.75;5090180;28;20035;-70
2022/11/02 12:13:17;;;;;;;;;;;;;;;16.70;49.69;96189.47;5090480;28;20019;-69
2022/11/02 12:15:45;;;;;;;;;;;;;;;17.31;48.40;96188.28;5088578;28;20009;-69
2022/11/02 12:18:10;;;;;;;;;;;;;;;17.11;48.88;96188.97;5090163;28;20017;-70
2022/11/02 12:20:44;;;;;;;;;;;;;;;17.02;48.91;96183.59;5089456;28;20182;-70
2022/11/02 12:23:15;;;;;;;;;;;;;;;16.97;49.01;96177.59;5090181;28;20040;-68
2022/11/02 12:25:52;;;;;;;;;;;;;;;16.80;49.76;96178.44;5089679;28;20005;-69
2022/11/02 12:28:18;;;;;;;;;;;;;;;17.05;48.50;96110.41;5090124;28;20008;-69
2022/11/02 12:30:46;;;;;;;;;;;;;;;17.26;48.71;96176.91;5090006;28;20012;-69
2022/11/02 12:33:17;;;;;;;;;;;;;;;17.92;47.43;96170.00;5086646;28;20016;-69
2022/11/02 12:35:49;;;;;;;;;;;;;;;17.77;47.42;96167.88;5089054;28;20415;-69
2022/11/02 12:38:14;;;;;;;;;;;;;;;17.95;47.09;96168.53;5090024;28;20336;-69
2022/11/02 12:40:43;;;;;;;;;;;;;;;17.57;47.79;96171.25;5089793;28;20009;-69
2022/11/02 12:43:14;;;;;;;;;;;;;;;17.21;48.71;96169.00;5088982;28;20373;-70
2022/11/02 12:45:46;;;;;;;;;;;;;;;16.79;49.89;96169.56;5089471;28;20011;-68
2022/11/02 12:48:18;;;;;;;;;;;;;;;16.70;49.24;96163.38;5088897;28;20168;-69
2022/11/02 12:50:57;;;;;;;;;;;;;;;17.27;48.45;96159.66;5087886;28;20013;-69
2022/11/02 12:53:41;;;;;;;;;;;;;;;18.29;46.63;96154.06;5089718;28;20005;-69
2022/11/02 12:56:10;;;;;;;;;;;;;;;17.68;47.34;96159.00;5088014;28;20048;-70
2022/11/02 12:58:37;;;;;;;;;;;;;;;18.47;45.82;96143.94;5089542;28;20005;-69
2022/11/02 13:01:12;;;;;;;;;;;;;;;18.41;45.51;96147.97;5088716;28;20017;-70
2022/11/02 13:03:47;;;;;;;;;;;;;;;17.94;46.75;96145.44;5089647;28;20456;-69
2022/11/02 13:06:16;;;;;;;;;;;;;;;17.58;47.58;96141.34;5089084;28;20639;-69
2022/11/02 13:08:50;;;;;;;;;;;;;;;17.16;48.73;96140.41;5089349;28;20020;-70
2022/11/02 13:11:25;;;;;;;;;;;;;;;17.28;48.28;96145.88;5089475;28;20005;-70